createdAt,value
2024-03-13T00:00:00.377Z,97674.53
2024-03-13T00:02:26.624Z,97673.38
2024-03-13T00:04:52.875Z,97676.75
2024-03-13T00:07:19.225Z,97671.34
2024-03-13T00:09:45.619Z,97673.91
2024-03-13T00:12:11.921Z,97668.25
2024-03-13T00:14:38.196Z,97677.94
2024-03-13T00:17:04.454Z,97668.81
2024-03-13T00:19:31.832Z,97666.06
2024-03-13T00:21:58.153Z,97672.88
2024-03-13T00:24:24.419Z,97670.94
2024-03-13T00:26:50.675Z,97676.72
2024-03-13T00:29:16.907Z,97672.66
2024-03-13T00:31:43.130Z,97677.63
2024-03-13T00:34:09.438Z,97683.41
2024-03-13T00:36:35.819Z,97688.38
2024-03-13T00:39:02.067Z,97690.69
2024-03-13T00:41:28.357Z,97695.66
2024-03-13T00:43:54.728Z,97705.69
2024-03-13T00:46:21.469Z,97699.00
2024-03-13T00:48:47.861Z,97706.63
2024-03-13T00:51:14.121Z,97696.44
2024-03-13T00:53:40.411Z,97695.84
2024-03-13T00:56:06.671Z,97691.59
2024-03-13T00:58:32.970Z,97692.06
2024-03-13T01:01:05.558Z,97696.78
2024-03-13T01:03:31.954Z,97691.91
2024-03-13T01:05:58.173Z,97696.63
2024-03-13T01:08:24.422Z,97693.41
2024-03-13T01:10:50.733Z,97684.03
2024-03-13T01:13:17.114Z,97685.09
2024-03-13T01:15:43.511Z,97681.84
2024-03-13T01:18:09.931Z,97679.44
2024-03-13T01:20:36.239Z,97678.84
2024-03-13T01:23:02.573Z,97674.00
2024-03-13T01:25:28.857Z,97666.69
2024-03-13T01:27:55.161Z,97661.03
2024-03-13T01:30:21.496Z,97659.91
2024-03-13T01:32:47.818Z,97658.72
2024-03-13T01:35:14.149Z,97660.81
2024-03-13T01:37:40.417Z,97652.25
2024-03-13T01:40:06.779Z,97663.09
2024-03-13T01:42:33.091Z,97657.44
2024-03-13T01:44:59.354Z,97655.25
2024-03-13T01:47:25.738Z,97652.00
2024-03-13T01:49:52.011Z,97651.41
2024-03-13T01:52:18.312Z,97650.84
2024-03-13T01:54:44.609Z,97644.97
2024-03-13T01:57:10.927Z,97642.75
2024-03-13T01:59:37.190Z,97640.56
2024-03-13T02:02:03.578Z,97633.06
2024-03-13T02:04:30.306Z,97640.22
2024-03-13T02:06:56.591Z,97635.13
2024-03-13T02:09:25.056Z,97633.53
2024-03-13T02:11:51.347Z,97630.28
2024-03-13T02:14:17.625Z,97628.66
2024-03-13T02:16:43.932Z,97621.75
2024-03-13T02:19:10.352Z,97621.38
2024-03-13T02:21:36.688Z,97622.22
2024-03-13T02:24:02.920Z,97619.75
2024-03-13T02:26:29.170Z,97621.03
2024-03-13T02:28:55.555Z,97628.41
2024-03-13T02:31:21.966Z,97621.50
2024-03-13T02:33:48.401Z,97624.34
2024-03-13T02:36:15.106Z,97622.16
2024-03-13T02:38:41.445Z,97626.09
2024-03-13T02:41:07.681Z,97631.63
2024-03-13T02:43:34.219Z,97635.28
2024-03-13T02:46:00.581Z,97626.75
2024-03-13T02:48:26.854Z,97633.09
2024-03-13T02:50:53.251Z,97631.44
2024-03-13T02:53:19.550Z,97630.66
2024-03-13T02:55:45.833Z,97632.50
2024-03-13T02:58:12.112Z,97642.28
2024-03-13T03:00:38.391Z,97643.34
2024-03-13T03:03:04.777Z,97652.28
2024-03-13T03:05:31.065Z,97644.34
2024-03-13T03:07:57.355Z,97639.28
2024-03-13T03:10:23.761Z,97648.28
2024-03-13T03:12:50.111Z,97644.78
2024-03-13T03:15:16.404Z,97634.44
2024-03-13T03:17:42.682Z,97634.44
2024-03-13T03:20:08.930Z,97646.88
2024-03-13T03:22:35.272Z,97640.19
2024-03-13T03:25:01.639Z,97639.38
2024-03-13T03:27:27.925Z,97639.00
2024-03-13T03:29:54.174Z,97650.84
2024-03-13T03:32:20.401Z,97654.53
2024-03-13T03:34:46.627Z,97652.09
2024-03-13T03:37:12.940Z,97652.31
2024-03-13T03:39:39.305Z,97651.72
2024-03-13T03:42:05.641Z,97641.56
2024-03-13T03:44:31.967Z,97642.81
2024-03-13T03:46:58.195Z,97643.03
2024-03-13T03:49:24.513Z,97638.44
2024-03-13T03:51:50.870Z,97632.53
2024-03-13T03:54:17.255Z,97636.44
2024-03-13T03:56:44.733Z,97627.97
2024-03-13T03:59:11.221Z,97636.88
2024-03-13T04:01:37.572Z,97642.75
2024-03-13T04:04:03.958Z,97647.03
2024-03-13T04:06:30.241Z,97640.34
2024-03-13T04:08:56.494Z,97649.91
2024-03-13T04:11:22.877Z,97646.66
2024-03-13T04:13:49.847Z,97650.34
2024-03-13T04:16:16.102Z,97650.56
2024-03-13T04:18:42.416Z,97643.63
2024-03-13T04:21:08.955Z,97649.16
2024-03-13T04:23:35.221Z,97660.81
2024-03-13T04:26:01.519Z,97663.66
2024-03-13T04:28:27.821Z,97661.81
2024-03-13T04:30:54.150Z,97661.00
2024-03-13T04:33:20.592Z,97659.16
2024-03-13T04:35:46.868Z,97659.16
2024-03-13T04:38:13.176Z,97660.22
2024-03-13T04:40:39.557Z,97655.69
2024-03-13T04:43:05.906Z,97665.28
2024-03-13T04:45:32.168Z,97663.44
2024-03-13T04:47:58.476Z,97673.22
2024-03-13T04:50:24.818Z,97672.41
2024-03-13T04:52:51.057Z,97671.59
2024-03-13T04:55:17.453Z,97676.31
2024-03-13T04:57:43.690Z,97675.72
2024-03-13T05:00:09.936Z,97668.00
2024-03-13T05:02:38.359Z,97664.75
2024-03-13T05:05:06.655Z,97669.25
2024-03-13T05:07:33.048Z,97678.81
2024-03-13T05:09:59.386Z,97691.25
2024-03-13T05:12:25.673Z,97686.78
2024-03-13T05:14:52.018Z,97687.78
2024-03-13T05:17:18.312Z,97680.66
2024-03-13T05:19:44.719Z,97685.97
2024-03-13T05:22:11.437Z,97692.25
2024-03-13T05:24:37.707Z,97690.44
2024-03-13T05:27:03.952Z,97692.06
2024-03-13T05:29:30.268Z,97685.13
2024-03-13T05:31:56.526Z,97686.19
2024-03-13T05:34:22.907Z,97692.06
2024-03-13T05:36:49.263Z,97697.56
2024-03-13T05:39:15.536Z,97707.97
2024-03-13T05:41:41.893Z,97707.97
2024-03-13T05:44:08.105Z,97704.50
2024-03-13T05:46:34.365Z,97705.50
2024-03-13T05:49:00.691Z,97702.06
2024-03-13T05:51:26.963Z,97706.53
2024-03-13T05:53:53.213Z,97702.06
2024-03-13T05:56:19.443Z,97704.72
2024-03-13T05:58:45.688Z,97702.06
2024-03-13T06:01:11.971Z,97698.59
2024-03-13T06:03:38.346Z,97697.00
2024-03-13T06:06:06.152Z,97692.47
2024-03-13T06:08:32.420Z,97691.88
2024-03-13T06:10:58.655Z,97690.28
2024-03-13T06:13:28.045Z,97691.31
2024-03-13T06:15:54.377Z,97688.69
2024-03-13T06:18:20.632Z,97690.28
2024-03-13T06:20:46.945Z,97686.81
2024-03-13T06:23:13.231Z,97687.63
2024-03-13T06:25:39.516Z,97687.03
2024-03-13T06:28:05.866Z,97679.91
2024-03-13T06:30:32.335Z,97679.09
2024-03-13T06:32:58.870Z,97666.16
2024-03-13T06:35:25.244Z,97684.75
2024-03-13T06:37:51.526Z,97682.94
2024-03-13T06:40:17.822Z,97680.06
2024-03-13T06:42:44.111Z,97681.47
2024-03-13T06:45:14.091Z,97672.50
2024-03-13T06:47:42.651Z,97674.47
2024-03-13T06:50:08.914Z,97679.72
2024-03-13T06:52:35.224Z,97692.00
2024-03-13T06:55:01.558Z,97683.47
2024-03-13T06:57:27.871Z,97683.88
2024-03-13T06:59:56.276Z,97690.59
2024-03-13T07:02:24.006Z,97694.72
2024-03-13T07:04:50.827Z,97708.50
2024-03-13T07:07:17.072Z,97707.09
2024-03-13T07:09:43.310Z,97710.78
2024-03-13T07:12:09.633Z,97716.44
2024-03-13T07:14:35.998Z,97724.09
2024-03-13T07:17:02.273Z,97731.44
2024-03-13T07:19:28.702Z,97730.78
2024-03-13T07:21:55.137Z,97738.38
2024-03-13T07:24:21.404Z,97743.72
2024-03-13T07:26:47.671Z,97747.72
2024-03-13T07:29:13.934Z,97755.41
2024-03-13T07:31:41.081Z,97757.09
2024-03-13T07:34:07.610Z,97758.25
2024-03-13T07:36:33.938Z,97758.41
2024-03-13T07:39:00.200Z,97758.84
2024-03-13T07:41:26.470Z,97760.31
2024-03-13T07:43:52.768Z,97757.81
2024-03-13T07:46:19.127Z,97766.94
2024-03-13T07:48:45.674Z,97787.69
2024-03-13T07:51:11.946Z,97786.53
2024-03-13T07:53:38.166Z,97796.00
2024-03-13T07:56:04.410Z,97792.09
2024-03-13T07:58:30.747Z,97787.41
2024-03-13T08:00:57.166Z,97789.66
2024-03-13T08:03:23.481Z,97786.00
2024-03-13T08:05:49.755Z,97785.28
2024-03-13T09:05:56.482Z,97766.00
2024-03-13T09:08:35.510Z,97776.41
2024-03-13T09:11:09.789Z,97770.81
2024-03-13T09:13:38.307Z,97768.94
2024-03-13T09:16:04.571Z,97775.09
2024-03-13T09:18:31.864Z,97769.19
2024-03-13T09:20:58.247Z,97774.81
2024-03-13T09:23:24.511Z,97768.66
2024-03-13T09:25:50.796Z,97770.78
2024-03-13T09:28:17.066Z,97773.44
2024-03-13T09:30:43.337Z,97774.25
2024-03-13T09:33:09.789Z,97768.91
2024-03-13T09:35:36.229Z,97769.69
2024-03-13T09:38:02.621Z,97777.47
2024-03-13T09:40:28.894Z,97782.03
2024-03-13T09:42:55.197Z,97776.44
2024-03-13T09:45:21.539Z,97777.00
2024-03-13T09:47:47.924Z,97772.16
2024-03-13T09:50:14.393Z,97771.06
2024-03-13T09:52:40.651Z,97775.31
2024-03-13T09:55:06.973Z,97763.81
2024-03-13T09:57:35.438Z,97767.78
2024-03-13T10:00:01.771Z,97768.31
2024-03-13T10:02:28.106Z,97762.97
2024-03-13T10:04:54.400Z,97768.06
2024-03-13T10:07:20.958Z,97766.72
2024-03-13T10:09:47.270Z,97774.25
2024-03-13T10:12:13.703Z,97776.66
2024-03-13T10:14:40.095Z,97781.19
2024-03-13T10:17:06.459Z,97773.16
2024-03-13T10:19:32.779Z,97773.97
2024-03-13T10:21:59.059Z,97776.66
2024-03-13T10:24:25.487Z,97777.47
2024-03-13T10:26:51.798Z,97773.72
2024-03-13T10:29:18.024Z,97782.56
2024-03-13T10:31:44.283Z,97783.63
2024-03-13T10:34:10.616Z,97779.34
2024-03-13T10:36:36.859Z,97782.00
2024-03-13T10:39:03.119Z,97787.66
2024-03-13T10:41:29.403Z,97782.84
2024-03-13T10:43:55.726Z,97780.19
2024-03-13T10:46:22.019Z,97776.94
2024-03-13T10:48:48.318Z,97776.94
2024-03-13T10:51:15.076Z,97775.88
2024-03-13T10:53:41.770Z,97775.38
2024-03-13T10:56:08.118Z,97777.50
2024-03-13T10:58:34.391Z,97773.75
2024-03-13T11:01:00.684Z,97774.84
2024-03-13T11:03:26.955Z,97780.50
2024-03-13T11:05:53.276Z,97784.50
2024-03-13T11:08:19.566Z,97779.16
2024-03-13T11:10:54.383Z,97774.88
2024-03-13T11:13:27.909Z,97785.03
2024-03-13T11:15:54.163Z,97778.09
2024-03-13T11:18:20.504Z,97781.25
2024-03-13T11:20:46.867Z,97781.25
2024-03-13T11:23:13.145Z,97774.84
2024-03-13T11:25:39.402Z,97786.13
2024-03-13T11:28:05.677Z,97780.75
2024-03-13T11:30:32.093Z,97781.53
2024-03-13T11:32:58.663Z,97767.38
2024-03-13T11:35:25.018Z,97776.47
2024-03-13T11:37:51.315Z,97781.03
2024-03-13T11:40:17.571Z,97773.00
2024-03-13T11:42:43.830Z,97774.03
2024-03-13T11:45:10.153Z,97774.84
2024-03-13T11:47:36.507Z,97770.56
2024-03-13T11:50:02.829Z,97764.97
2024-03-13T11:52:29.168Z,97771.09
2024-03-13T11:54:55.449Z,97768.16
2024-03-13T11:57:21.818Z,97762.56
2024-03-13T11:59:48.145Z,97761.50
2024-03-13T12:02:14.459Z,97756.94
2024-03-13T12:04:40.775Z,97750.25
2024-03-13T12:07:06.993Z,97753.47
2024-03-13T12:09:33.293Z,97747.59
2024-03-13T12:11:59.533Z,97755.91
2024-03-13T12:14:25.889Z,97745.75
2024-03-13T12:16:52.177Z,97749.78
2024-03-13T12:19:18.481Z,97737.97
2024-03-13T12:21:44.770Z,97746.56
2024-03-13T12:24:11.160Z,97738.53
2024-03-13T12:26:37.606Z,97737.97
2024-03-13T12:29:03.898Z,97736.13
2024-03-13T12:31:30.156Z,97729.16
2024-03-13T12:33:56.693Z,97728.34
2024-03-13T12:36:23.164Z,97728.34
2024-03-13T12:38:49.593Z,97731.31
2024-03-13T12:41:15.912Z,97741.47
2024-03-13T12:43:44.711Z,97728.34
2024-03-13T12:46:12.326Z,97732.06
2024-03-13T12:48:38.666Z,97734.75
2024-03-13T12:51:05.146Z,97726.44
2024-03-13T12:53:31.551Z,97730.75
2024-03-13T12:55:57.824Z,97731.56
2024-03-13T12:58:24.368Z,97725.13
2024-03-13T13:00:50.639Z,97728.63
2024-03-13T13:03:16.991Z,97726.72
2024-03-13T13:05:44.571Z,97724.88
2024-03-13T13:08:10.910Z,97725.41
2024-03-13T13:10:37.208Z,97724.59
2024-03-13T13:13:03.460Z,97729.94
2024-03-13T13:15:31.014Z,97720.31
2024-03-13T13:17:57.439Z,97717.63
2024-03-13T13:20:23.742Z,97713.34
2024-03-13T13:22:49.976Z,97713.34
2024-03-13T13:25:16.256Z,97712.28
2024-03-13T13:27:43.996Z,97707.47
2024-03-13T13:30:10.360Z,97708.25
2024-03-13T13:32:36.718Z,97710.69
2024-03-13T13:35:03.019Z,97714.97
2024-03-13T13:37:29.341Z,97719.25
2024-03-13T13:39:55.688Z,97721.94
2024-03-13T13:42:21.985Z,97718.47
2024-03-13T13:44:48.260Z,97716.06
2024-03-13T13:47:15.344Z,97717.66
2024-03-13T13:49:41.645Z,97721.94
2024-03-13T13:52:07.922Z,97728.09
2024-03-13T13:54:34.435Z,97728.09
2024-03-13T13:57:00.941Z,97716.56
2024-03-13T13:59:27.406Z,97719.78
2024-03-13T14:01:54.027Z,97721.41
2024-03-13T14:04:20.327Z,97717.66
2024-03-13T14:06:46.594Z,97717.66
2024-03-13T14:09:12.902Z,97718.22
2024-03-13T14:11:39.340Z,97724.38
2024-03-13T14:14:06.624Z,97719.81
2024-03-13T14:16:32.935Z,97723.28
2024-03-13T14:19:00.100Z,97725.16
2024-03-13T14:21:26.736Z,97730.78
2024-03-13T14:23:53.128Z,97725.69
2024-03-13T14:26:19.575Z,97726.50
2024-03-13T14:28:45.867Z,97727.28
2024-03-13T14:31:12.136Z,97728.38
2024-03-13T14:33:38.466Z,97725.69
2024-03-13T14:36:05.012Z,97728.38
2024-03-13T14:38:31.376Z,97727.81
2024-03-13T14:40:59.719Z,97731.59
2024-03-13T14:43:26.157Z,97733.19
2024-03-13T14:45:52.419Z,97729.69
2024-03-13T14:48:18.755Z,97730.50
2024-03-13T14:50:45.043Z,97730.50
2024-03-13T14:53:13.837Z,97730.50
2024-03-13T14:55:40.298Z,97728.91
2024-03-13T15:01:01.590Z,97727.28
2024-03-13T15:03:34.809Z,97728.09
2024-03-13T15:06:01.199Z,97727.28
2024-03-13T15:08:27.514Z,97720.88
2024-03-13T15:10:53.755Z,97720.88
2024-03-13T15:13:20.052Z,97719.25
2024-03-13T15:15:46.852Z,97730.78
2024-03-13T15:18:13.184Z,97728.38
2024-03-13T15:23:24.603Z,97724.59
2024-03-13T15:25:50.902Z,97721.16
2024-03-13T15:28:17.171Z,97720.34
2024-03-13T15:30:44.486Z,97725.69
2024-03-13T15:33:10.823Z,97718.72
2024-03-13T15:35:37.218Z,97724.88
2024-03-13T15:38:03.463Z,97723.28
2024-03-13T15:40:29.687Z,97725.13
2024-03-13T15:42:55.924Z,97716.56
2024-03-13T15:45:22.266Z,97719.25
2024-03-13T15:47:48.806Z,97716.56
2024-03-13T15:50:24.599Z,97717.91
2024-03-13T15:52:55.909Z,97722.19
2024-03-13T15:55:22.139Z,97722.19
2024-03-13T15:57:48.336Z,97714.41
2024-03-13T16:00:14.604Z,97713.59
2024-03-13T16:02:42.226Z,97714.69
2024-03-13T16:05:09.936Z,97720.31
2024-03-13T16:07:36.149Z,97716.00
2024-03-13T16:10:02.444Z,97714.41
2024-03-13T16:12:28.859Z,97718.94
2024-03-13T16:14:55.191Z,97717.63
2024-03-13T16:17:21.481Z,97716.00
2024-03-13T16:19:47.755Z,97715.44
2024-03-13T16:22:14.102Z,97716.53
2024-03-13T16:24:40.504Z,97725.59
2024-03-13T16:27:07.058Z,97717.84
2024-03-13T16:29:33.680Z,97717.06
2024-03-13T16:32:00.395Z,97721.06
2024-03-13T16:34:27.074Z,97715.16
2024-03-13T16:36:54.820Z,97719.94
2024-03-13T16:39:21.522Z,97721.03
2024-03-13T16:41:48.439Z,97718.63
2024-03-13T16:44:18.662Z,97721.56
2024-03-13T16:46:45.633Z,97728.22
2024-03-13T16:49:12.031Z,97723.97
2024-03-13T16:51:39.837Z,97727.69
2024-03-13T16:54:06.536Z,97731.44
2024-03-13T16:56:32.993Z,97730.06
2024-03-13T16:59:00.773Z,97729.28
2024-03-13T17:01:40.210Z,97723.38
2024-03-13T17:04:20.074Z,97727.13
2024-03-13T17:06:55.249Z,97729.00
2024-03-13T17:09:25.471Z,97724.97
2024-03-13T17:11:54.966Z,97734.06
2024-03-13T17:14:27.016Z,97742.34
2024-03-13T17:16:54.754Z,97733.78
2024-03-13T17:19:21.295Z,97731.34
2024-03-13T17:21:48.087Z,97735.09
2024-03-13T17:24:14.534Z,97731.88
2024-03-13T17:26:45.356Z,97735.63
2024-03-13T17:29:12.034Z,97731.31
2024-03-13T17:31:47.625Z,97734.28
2024-03-13T17:34:23.330Z,97738.81
2024-03-13T17:36:50.966Z,97747.91
2024-03-13T17:39:22.941Z,97744.69
2024-03-13T17:41:49.582Z,97746.56
2024-03-13T17:44:17.134Z,97752.16
2024-03-13T17:46:43.698Z,97751.13
2024-03-13T17:49:13.980Z,97754.06
2024-03-13T17:51:43.961Z,97753.22
2024-03-13T17:54:12.449Z,97755.34
2024-03-13T17:56:51.004Z,97751.88
2024-03-13T17:59:21.765Z,97757.47
2024-03-13T18:01:53.135Z,97760.16
2024-03-13T18:04:22.757Z,97770.06
2024-03-13T18:06:50.757Z,97760.66
2024-03-13T18:09:17.353Z,97769.50
2024-03-13T18:11:43.992Z,97761.72
2024-03-13T18:14:10.467Z,97771.63
2024-03-13T18:16:36.799Z,97772.66
2024-03-13T18:19:04.796Z,97769.19
2024-03-13T18:21:31.575Z,97771.31
2024-03-13T18:23:57.941Z,97766.78
2024-03-13T18:26:24.283Z,97768.66
2024-03-13T18:28:50.586Z,97775.84
2024-03-13T18:31:16.862Z,97768.91
2024-03-13T18:33:43.279Z,97774.53
2024-03-13T18:36:09.631Z,97771.84
2024-03-13T18:38:35.975Z,97766.72
2024-03-13T18:41:02.356Z,97773.97
2024-03-13T18:43:28.622Z,97772.34
2024-03-13T18:45:54.907Z,97776.91
2024-03-13T18:48:21.368Z,97772.59
2024-03-13T18:50:47.835Z,97773.69
2024-03-13T18:53:15.369Z,97779.28
2024-03-13T18:55:41.695Z,97774.72
2024-03-13T18:58:08.037Z,97777.66
2024-03-13T19:00:37.534Z,97779.50
2024-03-13T19:03:03.937Z,97778.72
2024-03-13T19:05:30.291Z,97780.59
2024-03-13T19:07:56.661Z,97776.31
2024-03-13T19:10:26.567Z,97784.59
2024-03-13T19:12:54.266Z,97784.59
2024-03-13T19:15:20.573Z,97791.00
2024-03-13T19:17:46.942Z,97793.94
2024-03-13T19:20:13.251Z,97794.19
2024-03-13T19:22:39.553Z,97797.91
2024-03-13T19:25:05.825Z,97797.91
2024-03-13T19:27:32.064Z,97793.91
2024-03-13T19:29:58.423Z,97798.16
2024-03-13T19:32:24.791Z,97799.25
2024-03-13T19:34:51.106Z,97800.84
2024-03-13T19:37:18.724Z,97802.72
2024-03-13T19:39:45.055Z,97801.91
2024-03-13T19:42:11.385Z,97800.84
2024-03-13T19:44:37.712Z,97794.72
2024-03-13T19:47:04.034Z,97798.44
2024-03-13T19:49:30.380Z,97803.78
2024-03-13T19:51:56.656Z,97801.09
2024-03-13T19:54:23.370Z,97799.25
2024-03-13T19:56:49.780Z,97798.97
2024-03-13T19:59:16.025Z,97801.66
2024-03-13T20:01:42.311Z,97809.41
2024-03-13T20:04:08.603Z,97806.50
2024-03-13T20:06:34.951Z,97809.97
2024-03-13T20:09:01.265Z,97807.31
2024-03-13T20:11:27.512Z,97815.06
2024-03-13T20:13:56.119Z,97809.72
2024-03-13T20:16:22.363Z,97804.38
2024-03-13T20:18:48.706Z,97809.72
2024-03-13T20:21:14.930Z,97812.13
2024-03-13T20:23:41.165Z,97817.47
2024-03-13T20:26:07.426Z,97814.03
2024-03-13T20:28:33.870Z,97812.94
2024-03-13T20:31:00.156Z,97812.94
2024-03-13T20:33:26.527Z,97814.53
2024-03-13T20:35:52.988Z,97814.53
2024-03-13T20:38:19.317Z,97807.59
2024-03-13T20:40:45.537Z,97813.75
2024-03-13T20:43:11.754Z,97817.22
2024-03-13T20:45:38.175Z,97819.91
2024-03-13T20:48:04.581Z,97814.53
2024-03-13T20:50:30.859Z,97818.03
2024-03-13T20:52:57.317Z,97817.22
2024-03-13T20:55:23.533Z,97818.84
2024-03-13T20:57:49.930Z,97818.84
2024-03-13T21:00:16.205Z,97808.16
2024-03-13T21:02:42.485Z,97812.69
2024-03-13T21:05:08.832Z,97812.44
2024-03-13T21:07:35.060Z,97807.06
2024-03-13T21:10:01.270Z,97812.44
2024-03-13T21:12:27.601Z,97805.47
2024-03-13T21:14:53.926Z,97815.09
2024-03-13T21:17:20.221Z,97817.78
2024-03-13T21:19:46.416Z,97819.41
2024-03-13T21:22:12.629Z,97817.50
2024-03-13T21:24:38.924Z,97814.06
2024-03-13T21:27:05.165Z,97816.72
2024-03-13T21:29:31.412Z,97809.50
2024-03-13T21:31:57.723Z,97808.72
2024-03-13T21:34:28.519Z,97806.03
2024-03-13T21:36:59.050Z,97810.56
2024-03-13T21:45:04.819Z,97815.66
2024-03-13T21:47:31.183Z,97807.63
2024-03-13T21:49:57.487Z,97810.31
2024-03-13T21:52:23.830Z,97804.97
2024-03-13T21:54:50.179Z,97808.72
2024-03-13T21:57:16.465Z,97811.13
2024-03-13T21:59:42.686Z,97805.78
2024-03-13T22:02:09.047Z,97806.56
2024-03-13T22:04:35.305Z,97811.69
2024-03-13T22:07:01.513Z,97806.31
2024-03-13T22:09:27.781Z,97807.13
2024-03-13T22:11:54.346Z,97811.41
2024-03-13T22:14:20.621Z,97811.41
2024-03-13T22:16:46.827Z,97811.41
2024-03-13T22:19:13.094Z,97812.19
2024-03-13T22:21:39.286Z,97814.09
2024-03-13T22:24:05.495Z,97808.75
2024-03-13T22:26:31.709Z,97810.34
2024-03-13T22:28:57.941Z,97806.84
2024-03-13T22:31:24.535Z,97807.66
2024-03-13T22:33:50.923Z,97807.66
2024-03-13T22:36:17.306Z,97806.84
2024-03-13T22:38:43.785Z,97809.78
2024-03-13T22:41:10.100Z,97805.00
2024-03-13T22:43:36.311Z,97799.91
2024-03-13T22:46:02.696Z,97800.72
2024-03-13T22:48:29.112Z,97792.69
2024-03-13T22:50:57.444Z,97799.09
2024-03-13T22:53:23.989Z,97799.09
2024-03-13T22:55:50.201Z,97807.13
2024-03-13T22:58:16.444Z,97802.03
2024-03-13T23:00:42.654Z,97794.25
2024-03-13T23:03:09.083Z,97794.25
2024-03-13T23:05:35.470Z,97792.66
2024-03-13T23:08:01.699Z,97791.00
2024-03-13T23:10:27.905Z,97797.09
2024-03-13T23:12:54.145Z,97787.09
2024-03-13T23:15:20.406Z,97787.56
2024-03-13T23:17:46.848Z,97787.75
2024-03-13T23:20:13.265Z,97787.97
2024-03-13T23:22:39.587Z,97790.88
2024-03-13T23:25:05.858Z,97790.00
2024-03-13T23:27:32.153Z,97789.16
2024-03-13T23:29:58.380Z,97792.59
2024-03-13T23:32:24.596Z,97789.56
2024-03-13T23:34:50.788Z,97791.13
2024-03-13T23:37:18.963Z,97786.81
2024-03-13T23:39:45.273Z,97788.09
2024-03-13T23:42:11.625Z,97786.19
2024-03-13T23:44:38.891Z,97784.00
2024-03-13T23:47:05.336Z,97778.34
2024-03-13T23:49:31.588Z,97780.00
2024-03-13T23:51:57.956Z,97787.53
2024-03-13T23:54:24.306Z,97790.31
2024-03-13T23:56:50.613Z,97795.25
2024-03-13T23:59:16.856Z,97797.47
